Addis, Louisiana
Current Conditions -  °F | °C
As of 4:53 PM on Saturday 25 Oct 2014 (Local Time) from KBTR Reporting Station
Clear Clear  
Wind Chill: 80°   Ceiling: Unl
Heat Index: 80°   Visibility: 10mi
Dew Point: 53°   Wind: 7mph
Humidity: 39%   Direction: 280°W
Pressure: 30.08"   Gusts: NA
Location:  30.35°N, 91.27°W
Report Text: KBTR 252153Z AUTO 28006KT 10SM CLR 27/12 A3008 RMK AO2 SLP183 T02670117 TSNO
Loading
Personal Weather Stations






























Interactive Weather Map
Tropical Storm Tracking
New forecast layout! Learn more

10-Day Weather Forecast

Advertisements
Track Severe Weather on mobile